createdAt,value
2022-09-23T00:01:14.326Z,5.97
2022-09-23T00:03:45.517Z,4.97
2022-09-23T00:06:16.313Z,5.88
2022-09-23T00:08:44.177Z,4.45
2022-09-23T00:11:19.832Z,4.13
2022-09-23T00:13:48.993Z,5.18
2022-09-23T00:16:23.955Z,6.10
2022-09-23T00:18:51.073Z,4.90
2022-09-23T00:21:19.751Z,6.32
2022-09-23T00:23:47.088Z,6.45
2022-09-23T00:26:16.157Z,5.05
2022-09-23T00:28:43.935Z,5.25
2022-09-23T00:31:17.254Z,6.97
2022-09-23T00:33:44.698Z,7.13
2022-09-23T00:36:15.777Z,8.52
2022-09-23T00:38:44.164Z,10.88
2022-09-23T00:41:11.924Z,8.75
2022-09-23T00:43:47.091Z,9.73
2022-09-23T00:46:20.361Z,11.00
2022-09-23T00:48:50.064Z,9.38
2022-09-23T00:51:20.763Z,8.10
2022-09-23T00:53:50.752Z,7.15
2022-09-23T00:56:20.362Z,8.02
2022-09-23T00:58:49.298Z,5.53
2022-09-23T01:01:16.339Z,4.97
2022-09-23T01:03:45.617Z,7.05
2022-09-23T01:06:13.712Z,9.23
2022-09-23T01:08:42.510Z,7.45
2022-09-23T01:11:34.007Z,10.90
2022-09-23T01:14:22.506Z,11.93
2022-09-23T01:17:16.283Z,10.40
2022-09-23T01:20:04.045Z,8.90
2022-09-23T01:22:39.985Z,8.48
2022-09-23T01:25:32.958Z,6.35
2022-09-23T01:28:24.791Z,5.40
2022-09-23T01:31:05.532Z,6.15
2022-09-23T01:33:51.241Z,5.32
2022-09-23T01:36:28.942Z,6.95
2022-09-23T01:38:59.233Z,6.00
2022-09-23T01:41:34.775Z,6.60
2022-09-23T01:44:09.791Z,7.57
2022-09-23T01:46:53.639Z,6.40
2022-09-23T01:49:32.550Z,4.28
2022-09-23T01:52:28.902Z,5.00
2022-09-23T01:55:08.548Z,4.57
2022-09-23T01:57:42.962Z,6.80
2022-09-23T02:00:16.471Z,3.65
2022-09-23T02:02:59.399Z,3.95
2022-09-23T02:05:34.766Z,2.60
2022-09-23T02:08:09.169Z,4.00
2022-09-23T02:10:47.732Z,3.75
2022-09-23T02:13:48.931Z,3.72
2022-09-23T02:16:26.498Z,4.43
2022-09-23T02:19:11.662Z,4.47
2022-09-23T02:21:43.039Z,5.47
2022-09-23T02:24:30.173Z,8.57
2022-09-23T02:27:08.929Z,16.00
2022-09-23T02:29:45.776Z,10.73
2022-09-23T02:32:22.407Z,8.35
2022-09-23T02:35:26.983Z,7.70
2022-09-23T02:38:02.744Z,6.32
2022-09-23T02:40:41.970Z,11.55
2022-09-23T02:43:08.924Z,16.05
2022-09-23T02:45:38.012Z,13.52
2022-09-23T02:48:13.782Z,11.75
2022-09-23T02:50:40.777Z,10.18
2022-09-23T02:53:08.261Z,9.20
2022-09-23T02:55:35.261Z,10.85
2022-09-23T02:58:05.515Z,9.50
2022-09-23T03:01:05.069Z,10.13
2022-09-23T03:03:47.254Z,7.70
2022-09-23T03:06:32.283Z,8.05
2022-09-23T03:09:31.358Z,7.90
2022-09-23T03:12:22.384Z,9.27
2022-09-23T03:14:49.574Z,5.57
2022-09-23T03:17:27.955Z,5.57
2022-09-23T03:20:23.533Z,6.50
2022-09-23T03:22:57.083Z,4.65
2022-09-23T03:25:25.686Z,4.57
2022-09-23T03:27:57.594Z,4.38
2022-09-23T03:30:26.272Z,5.63
2022-09-23T03:32:55.136Z,4.97
2022-09-23T03:35:25.858Z,5.65
2022-09-23T03:37:58.945Z,4.78
2022-09-23T03:40:30.644Z,6.63
2022-09-23T03:42:58.839Z,5.90
2022-09-23T03:45:29.945Z,7.45
2022-09-23T03:47:56.903Z,6.70
2022-09-23T03:50:24.587Z,6.30
2022-09-23T03:52:51.525Z,4.65
2022-09-23T03:55:20.417Z,4.60
2022-09-23T03:57:47.739Z,6.57
2022-09-23T04:00:15.971Z,7.05
2022-09-23T04:02:43.233Z,5.53
2022-09-23T04:05:11.641Z,4.70
2022-09-23T04:07:38.954Z,6.47
2022-09-23T04:10:06.864Z,5.88
2022-09-23T04:12:33.771Z,5.43
2022-09-23T04:15:00.671Z,6.05
2022-09-23T04:17:27.559Z,4.75
2022-09-23T04:19:54.489Z,4.63
2022-09-23T04:22:21.474Z,5.38
2022-09-23T04:24:49.318Z,5.35
2022-09-23T04:27:16.222Z,9.98
2022-09-23T04:29:43.169Z,7.43
2022-09-23T04:32:10.333Z,10.45
2022-09-23T04:34:37.231Z,7.93
2022-09-23T04:37:04.184Z,9.15
2022-09-23T04:39:31.212Z,10.82
2022-09-23T04:41:58.176Z,7.80
2022-09-23T04:44:26.897Z,7.47
2022-09-23T04:46:53.904Z,8.32
2022-09-23T04:49:20.903Z,9.50
2022-09-23T04:51:47.941Z,8.02
2022-09-23T04:54:15.156Z,11.57
2022-09-23T04:56:42.687Z,10.60
2022-09-23T04:59:09.755Z,12.02
2022-09-23T05:01:36.891Z,14.35
2022-09-23T05:04:07.554Z,11.95
2022-09-23T05:06:35.595Z,10.68
2022-09-23T05:09:04.931Z,13.02
2022-09-23T05:11:32.358Z,11.18
2022-09-23T05:13:59.572Z,10.70
2022-09-23T05:16:27.394Z,11.57
2022-09-23T05:18:54.746Z,16.08
2022-09-23T05:21:24.565Z,15.50
2022-09-23T05:23:59.024Z,11.18
2022-09-23T05:26:28.456Z,19.27
2022-09-23T05:28:56.502Z,16.83
2022-09-23T05:31:26.710Z,31.60
2022-09-23T05:33:57.529Z,26.48
2022-09-23T05:36:25.847Z,8.52
2022-09-23T05:38:54.748Z,11.75
2022-09-23T05:41:25.440Z,12.50
2022-09-23T05:43:53.930Z,7.72
2022-09-23T05:46:26.477Z,8.65
2022-09-23T05:48:53.504Z,6.32
2022-09-23T05:51:25.452Z,6.32
2022-09-23T05:53:58.390Z,7.40
2022-09-23T05:56:27.487Z,7.95
2022-09-23T05:58:56.375Z,7.32
2022-09-23T06:01:26.002Z,6.68
2022-09-23T06:03:57.452Z,6.55
2022-09-23T06:06:29.570Z,7.93
2022-09-23T06:08:57.267Z,6.60
2022-09-23T06:11:24.207Z,5.82
2022-09-23T06:13:55.368Z,5.47
2022-09-23T06:16:22.480Z,6.70
2022-09-23T06:18:49.644Z,7.10
2022-09-23T06:21:17.639Z,5.15
2022-09-23T06:23:45.694Z,8.77
2022-09-23T06:26:16.473Z,5.93
2022-09-23T06:28:44.850Z,8.95
2022-09-23T06:31:15.316Z,6.82
2022-09-23T06:33:43.580Z,8.30
2022-09-23T06:36:12.379Z,9.15
2022-09-23T06:38:41.163Z,6.97
2022-09-23T06:41:08.277Z,7.20
2022-09-23T06:43:35.159Z,4.88
2022-09-23T06:46:04.166Z,6.82
2022-09-23T06:48:36.466Z,6.72
2022-09-23T06:51:07.393Z,9.53
2022-09-23T06:53:35.143Z,7.82
2022-09-23T06:56:05.892Z,9.60
2022-09-23T06:58:35.501Z,9.60
2022-09-23T07:01:04.036Z,8.65
2022-09-23T07:03:32.021Z,11.70
2022-09-23T07:05:59.477Z,10.80
2022-09-23T07:08:27.794Z,9.23
2022-09-23T07:10:56.273Z,10.95
2022-09-23T07:13:23.937Z,12.38
2022-09-23T07:15:55.874Z,11.60
2022-09-23T07:18:25.984Z,9.10
2022-09-23T07:20:53.828Z,10.65
2022-09-23T07:23:21.008Z,11.98
2022-09-23T07:25:49.557Z,12.00
2022-09-23T07:28:16.605Z,8.70
2022-09-23T07:30:55.873Z,14.27
2022-09-23T07:33:32.215Z,11.57
2022-09-23T07:36:00.147Z,9.25
2022-09-23T07:38:30.497Z,7.47
2022-09-23T07:41:13.373Z,11.00
2022-09-23T07:43:40.921Z,7.90
2022-09-23T07:46:11.171Z,7.88
2022-09-23T07:48:38.830Z,6.10
2022-09-23T07:51:20.249Z,5.07
2022-09-23T07:53:51.639Z,4.35
2022-09-23T07:56:26.701Z,6.80
2022-09-23T07:59:00.547Z,3.78
2022-09-23T08:01:36.227Z,3.88
2022-09-23T08:04:07.403Z,5.65
2022-09-23T08:06:34.992Z,5.85
2022-09-23T08:09:01.983Z,3.75
2022-09-23T08:11:29.608Z,3.58
2022-09-23T08:13:57.927Z,3.97
2022-09-23T08:16:24.889Z,4.70
2022-09-23T08:18:52.499Z,3.92
2022-09-23T08:21:24.374Z,6.68
2022-09-23T08:23:55.109Z,6.97
2022-09-23T08:26:22.605Z,3.83
2022-09-23T08:28:53.914Z,5.22
2022-09-23T08:31:23.556Z,4.10
2022-09-23T08:34:01.976Z,4.80
2022-09-23T08:36:29.604Z,3.78
2022-09-23T08:38:57.380Z,4.18
2022-09-23T08:41:41.906Z,4.65
2022-09-23T08:44:17.814Z,8.02
2022-09-23T08:46:53.035Z,7.03
2022-09-23T08:49:32.442Z,6.70
2022-09-23T08:52:06.964Z,5.93
2022-09-23T08:54:34.333Z,7.43
2022-09-23T08:57:04.122Z,4.22
2022-09-23T08:59:41.222Z,6.18
2022-09-23T09:02:29.297Z,5.53
2022-09-23T09:05:01.158Z,5.35
2022-09-23T09:07:37.409Z,6.07
2022-09-23T09:10:22.421Z,3.72
2022-09-23T09:13:07.622Z,6.60
2022-09-23T09:15:46.574Z,6.30
2022-09-23T09:18:20.954Z,5.30
2022-09-23T09:21:05.922Z,4.47
2022-09-23T09:23:55.963Z,7.90
2022-09-23T09:26:35.390Z,5.22
2022-09-23T09:32:41.197Z,4.75
2022-09-23T09:35:21.723Z,5.88
2022-09-23T09:37:48.851Z,3.22
2022-09-23T09:40:17.429Z,5.30
2022-09-23T09:42:49.745Z,5.90
2022-09-23T09:45:27.998Z,5.68
2022-09-23T09:48:18.045Z,3.75
2022-09-23T09:50:52.056Z,5.15
2022-09-23T09:53:25.930Z,5.80
2022-09-23T09:56:07.877Z,3.10
2022-09-23T09:58:54.402Z,4.18
2022-09-23T10:01:32.914Z,2.40
2022-09-23T10:04:06.179Z,4.03
2022-09-23T10:06:35.801Z,3.25
2022-09-23T10:09:08.267Z,2.80
2022-09-23T10:14:14.133Z,3.38
2022-09-23T10:16:42.160Z,4.65
2022-09-23T10:19:29.543Z,3.17
2022-09-23T10:22:01.380Z,3.00
2022-09-23T10:24:30.714Z,6.23
2022-09-23T10:27:02.251Z,3.50
2022-09-23T10:29:38.991Z,2.92
2022-09-23T10:32:20.713Z,4.47
2022-09-23T10:34:54.130Z,4.05
2022-09-23T10:37:38.169Z,2.10
2022-09-23T10:40:34.465Z,2.58
2022-09-23T10:43:43.026Z,2.75
2022-09-23T10:46:47.183Z,3.42
2022-09-23T10:49:38.863Z,2.30
2022-09-23T10:52:27.816Z,5.35
2022-09-23T10:55:22.062Z,1.92
2022-09-23T10:58:04.413Z,2.85
2022-09-23T11:00:43.483Z,2.85
2022-09-23T11:03:25.407Z,5.60
2022-09-23T11:05:55.470Z,2.22
2022-09-23T11:08:59.338Z,2.53
2022-09-23T11:11:50.959Z,3.58
2022-09-23T11:14:32.843Z,4.68
2022-09-23T11:17:14.894Z,4.20
2022-09-23T11:19:57.894Z,3.60
2022-09-23T11:25:18.959Z,6.78
2022-09-23T11:28:04.647Z,1.98
2022-09-23T11:30:41.441Z,1.70
2022-09-23T11:33:42.974Z,1.42
2022-09-23T11:36:31.049Z,2.33
2022-09-23T11:39:01.534Z,1.35
2022-09-23T11:41:36.769Z,1.23
2022-09-23T11:44:20.018Z,2.67
2022-09-23T11:47:23.981Z,2.97
2022-09-23T11:50:03.840Z,2.85
2022-09-23T11:52:42.691Z,2.30
2022-09-23T11:55:24.483Z,1.90
2022-09-23T11:58:00.155Z,2.35
2022-09-23T12:00:34.424Z,2.15
2022-09-23T12:03:19.692Z,2.25
2022-09-23T12:06:12.666Z,2.78
2022-09-23T12:08:39.623Z,2.15
2022-09-23T12:11:37.544Z,1.10
2022-09-23T12:14:29.752Z,7.53
2022-09-23T12:17:02.838Z,2.55
2022-09-23T12:19:48.059Z,2.08
2022-09-23T12:22:33.472Z,1.98
2022-09-23T12:25:19.768Z,1.40
2022-09-23T12:27:51.677Z,2.35
2022-09-23T12:30:21.675Z,1.98
2022-09-23T12:32:48.978Z,2.10
2022-09-23T12:35:27.368Z,3.35
2022-09-23T12:37:54.588Z,0.98
2022-09-23T12:40:28.547Z,1.70
2022-09-23T12:42:55.978Z,1.52
2022-09-23T12:45:32.094Z,2.17
2022-09-23T12:48:00.368Z,2.53
2022-09-23T12:50:51.070Z,1.73
2022-09-23T12:53:36.207Z,2.00
2022-09-23T12:56:23.028Z,1.75
2022-09-23T12:58:50.673Z,1.85
2022-09-23T13:01:26.652Z,1.27
2022-09-23T13:04:14.656Z,1.55
2022-09-23T13:06:46.951Z,2.63
2022-09-23T13:09:19.226Z,2.38
2022-09-23T13:11:48.181Z,1.23
2022-09-23T13:14:26.752Z,1.02
2022-09-23T13:16:57.161Z,1.60
2022-09-23T13:19:27.238Z,2.15
2022-09-23T13:21:59.260Z,1.48
2022-09-23T13:24:28.883Z,1.75
2022-09-23T13:27:26.830Z,1.35
2022-09-23T13:30:00.877Z,0.82
2022-09-23T13:32:39.756Z,2.35
2022-09-23T13:35:18.750Z,2.15
2022-09-23T13:37:50.008Z,1.25
2022-09-23T13:40:19.148Z,1.35
2022-09-23T13:43:12.622Z,1.25
2022-09-23T13:45:43.256Z,0.60
2022-09-23T13:48:15.475Z,1.35
2022-09-23T13:50:50.375Z,3.67
2022-09-23T13:53:31.515Z,1.35
2022-09-23T13:56:13.930Z,1.65
2022-09-23T13:58:40.973Z,3.28
2022-09-23T14:01:10.410Z,2.45
2022-09-23T14:03:39.283Z,1.50
2022-09-23T14:06:12.316Z,1.30
2022-09-23T14:08:43.046Z,1.48
2022-09-23T14:11:16.213Z,2.47
2022-09-23T14:13:44.882Z,3.30
2022-09-23T14:16:17.380Z,3.08
2022-09-23T14:18:49.846Z,1.85
2022-09-23T14:21:36.246Z,1.33
2022-09-23T14:24:19.378Z,0.95
2022-09-23T14:27:06.581Z,2.47
2022-09-23T14:29:36.256Z,2.28
2022-09-23T14:32:23.955Z,3.70
2022-09-23T14:35:00.157Z,2.28
2022-09-23T14:37:56.252Z,2.55
2022-09-23T14:40:28.918Z,2.03
2022-09-23T14:45:29.052Z,0.85
2022-09-23T14:48:12.738Z,3.20
2022-09-23T14:51:06.209Z,1.75
2022-09-23T14:53:37.928Z,2.30
2022-09-23T14:56:09.912Z,1.33
2022-09-23T14:58:57.247Z,1.92
2022-09-23T15:01:25.683Z,2.13
2022-09-23T15:03:53.599Z,1.42
2022-09-23T15:06:23.092Z,1.90
2022-09-23T15:08:55.356Z,2.83
2022-09-23T15:11:22.916Z,2.30
2022-09-23T15:13:52.783Z,1.75
2022-09-23T15:16:27.899Z,2.10
2022-09-23T15:18:57.768Z,4.07
2022-09-23T15:21:30.222Z,1.60
2022-09-23T15:23:57.882Z,3.15
2022-09-23T15:26:47.359Z,3.72
2022-09-23T15:29:14.413Z,2.83
2022-09-23T15:31:41.350Z,1.98
2022-09-23T15:34:11.086Z,2.67
2022-09-23T15:36:38.695Z,1.83
2022-09-23T15:39:08.743Z,2.80
2022-09-23T15:41:35.622Z,1.95
2022-09-23T15:44:13.272Z,2.67
2022-09-23T15:46:52.025Z,2.95
2022-09-23T15:49:29.460Z,4.10
2022-09-23T15:51:59.868Z,3.00
2022-09-23T15:54:28.284Z,2.78
2022-09-23T15:56:56.456Z,2.95
2022-09-23T15:59:24.210Z,4.28
2022-09-23T16:01:52.856Z,5.00
2022-09-23T16:04:20.031Z,7.00
2022-09-23T16:06:48.417Z,7.75
2022-09-23T16:09:15.827Z,7.78
2022-09-23T16:11:48.043Z,9.77
2022-09-23T16:14:17.138Z,9.70
2022-09-23T16:16:45.346Z,6.57
2022-09-23T16:19:12.658Z,8.02
2022-09-23T16:21:44.804Z,5.00
2022-09-23T16:24:17.413Z,5.40
2022-09-23T16:26:46.857Z,4.72
2022-09-23T16:29:14.887Z,6.55
2022-09-23T16:31:42.530Z,4.85
2022-09-23T16:34:09.693Z,4.57
2022-09-23T16:36:41.629Z,2.65
2022-09-23T16:39:12.537Z,3.50
2022-09-23T16:41:40.132Z,6.65
2022-09-23T16:44:09.422Z,6.40
2022-09-23T16:46:36.491Z,6.72
2022-09-23T16:49:03.909Z,4.80
2022-09-23T16:51:42.373Z,6.20
2022-09-23T16:54:13.275Z,5.70
2022-09-23T16:56:46.458Z,7.13
2022-09-23T16:59:15.176Z,11.77
2022-09-23T17:02:01.486Z,15.27
2022-09-23T17:04:28.712Z,17.38
2022-09-23T17:06:56.570Z,15.95
2022-09-23T17:09:26.484Z,17.42
2022-09-23T17:12:04.861Z,13.27
2022-09-23T17:14:32.070Z,13.38
2022-09-23T17:16:59.157Z,13.68
2022-09-23T17:19:26.127Z,13.48
2022-09-23T17:21:53.692Z,12.10
2022-09-23T17:24:20.612Z,14.50
2022-09-23T17:26:52.634Z,18.50
2022-09-23T17:29:20.168Z,15.20
2022-09-23T17:31:47.175Z,13.43
2022-09-23T17:34:14.163Z,15.27
2022-09-23T17:36:41.072Z,12.90
2022-09-23T17:39:08.185Z,15.77
2022-09-23T17:41:35.163Z,17.80
2022-09-23T17:44:02.332Z,13.80
2022-09-23T17:46:31.102Z,14.23
2022-09-23T17:48:58.404Z,15.85
2022-09-23T17:51:25.690Z,13.15
2022-09-23T17:53:52.845Z,15.25
2022-09-23T17:56:31.455Z,15.70
2022-09-23T17:59:02.155Z,15.77
2022-09-23T18:01:29.893Z,16.50
2022-09-23T18:03:59.605Z,16.50
2022-09-23T18:06:28.978Z,15.55
2022-09-23T18:08:56.528Z,16.17
2022-09-23T18:11:28.163Z,14.32
2022-09-23T18:14:02.098Z,16.27
2022-09-23T18:16:36.824Z,19.05
2022-09-23T18:19:05.002Z,17.30
2022-09-23T18:21:34.223Z,18.85
2022-09-23T18:26:52.938Z,16.13
2022-09-23T18:29:20.061Z,13.68
2022-09-23T18:31:49.285Z,16.10
2022-09-23T18:34:17.170Z,14.52
2022-09-23T18:36:44.916Z,15.90
2022-09-23T18:39:12.355Z,14.98
2022-09-23T18:41:39.588Z,16.05
2022-09-23T18:44:06.659Z,18.13
2022-09-23T18:46:33.629Z,19.48
2022-09-23T18:49:19.364Z,17.48
2022-09-23T18:51:57.117Z,16.20
2022-09-23T18:54:27.418Z,20.90
2022-09-23T18:56:55.102Z,16.30
2022-09-23T18:59:28.059Z,14.63
2022-09-23T19:01:55.846Z,14.35
2022-09-23T19:04:25.088Z,14.35
2022-09-23T19:06:53.716Z,19.55
2022-09-23T19:09:20.844Z,15.63
2022-09-23T19:11:52.383Z,15.02
2022-09-23T19:14:19.618Z,31.58
2022-09-23T19:16:49.056Z,13.68
2022-09-23T19:19:16.139Z,14.23
2022-09-23T19:21:43.278Z,13.95
2022-09-23T19:24:15.867Z,10.88
2022-09-23T19:26:43.738Z,9.48
2022-09-23T19:29:16.158Z,9.73
2022-09-23T19:31:44.029Z,11.73
2022-09-23T19:34:16.512Z,11.05
2022-09-23T19:36:45.066Z,10.27
2022-09-23T19:39:22.276Z,8.48
2022-09-23T19:41:50.546Z,10.88
2022-09-23T19:44:19.951Z,11.02
2022-09-23T19:46:55.116Z,9.63
2022-09-23T19:49:24.806Z,9.93
2022-09-23T19:51:52.266Z,9.95
2022-09-23T19:54:20.932Z,11.77
2022-09-23T19:56:51.867Z,9.95
2022-09-23T19:59:19.492Z,10.10
2022-09-23T20:01:50.007Z,11.38
2022-09-23T20:04:17.348Z,9.48
2022-09-23T20:06:46.012Z,34.92
2022-09-23T20:09:13.138Z,12.48
2022-09-23T20:11:42.908Z,15.25
2022-09-23T20:14:11.971Z,11.70
2022-09-23T20:16:38.966Z,11.77
2022-09-23T20:19:06.288Z,10.25
2022-09-23T20:21:34.512Z,12.73
2022-09-23T20:24:05.254Z,12.80
2022-09-23T20:26:51.366Z,11.90
2022-09-23T20:29:18.431Z,11.43
2022-09-23T20:31:45.372Z,9.85
2022-09-23T20:34:12.709Z,8.52
2022-09-23T20:36:41.464Z,9.60
2022-09-23T20:39:10.250Z,9.75
2022-09-23T20:41:39.219Z,12.32
2022-09-23T20:44:09.768Z,14.15
2022-09-23T20:46:36.884Z,21.23
2022-09-23T20:49:04.652Z,24.70
2022-09-23T20:51:35.337Z,23.17
2022-09-23T20:54:02.540Z,16.80
2022-09-23T20:56:30.020Z,15.73
2022-09-23T20:59:04.292Z,20.95
2022-09-23T21:01:37.128Z,22.10
2022-09-23T21:04:06.080Z,13.00
2022-09-23T21:06:37.826Z,11.45
2022-09-23T21:09:06.622Z,10.90
2022-09-23T21:11:34.003Z,11.95
2022-09-23T21:14:02.158Z,10.18
2022-09-23T21:16:29.729Z,10.45
2022-09-23T21:18:57.724Z,11.73
2022-09-23T21:21:24.875Z,10.88
2022-09-23T21:23:52.279Z,11.93
2022-09-23T21:26:21.596Z,11.80
2022-09-23T21:28:50.672Z,14.20
2022-09-23T21:31:23.838Z,10.25
2022-09-23T21:34:02.655Z,14.32
2022-09-23T21:36:34.731Z,14.50
2022-09-23T21:39:03.096Z,13.15
2022-09-23T21:41:30.454Z,11.40
2022-09-23T21:43:57.834Z,14.45
2022-09-23T21:46:25.540Z,12.40
2022-09-23T21:48:54.026Z,21.42
2022-09-23T21:51:25.595Z,8.27
2022-09-23T21:53:54.716Z,9.60
2022-09-23T21:56:27.222Z,11.60
2022-09-23T21:58:55.268Z,10.23
2022-09-23T22:01:30.943Z,17.65
2022-09-23T22:04:03.945Z,10.20
2022-09-23T22:06:31.773Z,9.30
2022-09-23T22:09:01.324Z,7.13
2022-09-23T22:12:05.186Z,8.50
2022-09-23T22:17:01.463Z,12.43
2022-09-23T22:19:35.218Z,14.52
2022-09-23T22:22:07.870Z,9.48
2022-09-23T22:24:34.753Z,8.63
2022-09-23T22:27:01.652Z,7.22
2022-09-23T22:29:46.932Z,13.95
2022-09-23T22:32:32.199Z,10.25
2022-09-23T22:34:59.109Z,9.40
2022-09-23T22:37:28.813Z,10.07
2022-09-23T22:39:56.068Z,11.88
2022-09-23T22:42:23.044Z,8.38
2022-09-23T22:44:51.089Z,7.13
2022-09-23T22:47:19.686Z,6.78
2022-09-23T22:49:47.598Z,6.38
2022-09-23T22:52:21.150Z,7.07
2022-09-23T22:54:48.242Z,7.20
2022-09-23T22:57:15.299Z,7.50
2022-09-23T22:59:48.090Z,10.23
2022-09-23T23:02:20.866Z,8.23
2022-09-23T23:04:48.166Z,8.13
2022-09-23T23:07:21.164Z,13.60
2022-09-23T23:12:18.979Z,13.30
2022-09-23T23:14:46.486Z,10.13
2022-09-23T23:17:13.624Z,12.73
2022-09-23T23:19:40.530Z,10.77
2022-09-23T23:22:07.498Z,13.77
2022-09-23T23:24:34.411Z,16.52
2022-09-23T23:27:01.324Z,15.48
2022-09-23T23:29:28.272Z,15.25
2022-09-23T23:31:55.281Z,12.65
2022-09-23T23:34:22.402Z,13.07
2022-09-23T23:41:20.599Z,12.70
2022-09-23T23:44:00.194Z,12.25
2022-09-23T23:46:38.255Z,14.90
2022-09-23T23:49:26.742Z,13.38
2022-09-23T23:52:00.620Z,9.65
2022-09-23T23:54:27.583Z,8.13
2022-09-23T23:57:35.978Z,12.65
